createdAt,value
2023-03-29T00:04:02.583Z,2.83
2023-03-29T00:08:05.159Z,2.28
2023-03-29T00:12:07.408Z,2.20
2023-03-29T00:22:56.756Z,1.90
2023-03-29T00:26:59.104Z,1.73
2023-03-29T00:31:14.015Z,1.60
2023-03-29T00:35:16.693Z,1.77
2023-03-29T00:39:22.088Z,1.77
2023-03-29T00:43:24.790Z,1.95
2023-03-29T00:47:35.624Z,1.88
2023-03-29T00:51:41.495Z,1.70
2023-03-29T00:55:46.703Z,1.90
2023-03-29T00:59:50.572Z,1.80
2023-03-29T01:04:26.275Z,1.85
2023-03-29T01:08:58.627Z,1.65
2023-03-29T01:13:19.288Z,1.55
2023-03-29T01:17:22.102Z,1.70
2023-03-29T01:21:32.749Z,2.00
2023-03-29T01:25:40.531Z,1.77
2023-03-29T01:29:49.137Z,1.20
2023-03-29T01:33:58.955Z,1.55
2023-03-29T01:38:15.491Z,1.30
2023-03-29T01:42:51.498Z,1.10
2023-03-29T01:47:04.455Z,1.10
2023-03-29T01:51:12.896Z,1.52
2023-03-29T01:55:26.441Z,1.17
2023-03-29T01:59:32.425Z,1.60
2023-03-29T02:03:42.414Z,1.45
2023-03-29T02:07:50.519Z,1.30
2023-03-29T02:11:57.398Z,1.23
2023-03-29T02:16:03.134Z,1.88
2023-03-29T02:20:27.789Z,1.75
2023-03-29T02:24:34.694Z,1.17
2023-03-29T02:28:37.391Z,1.63
2023-03-29T02:32:49.621Z,1.42
2023-03-29T02:37:00.139Z,1.50
2023-03-29T02:41:03.155Z,1.45
2023-03-29T02:45:08.491Z,2.20
2023-03-29T02:49:12.159Z,1.85
2023-03-29T02:53:23.079Z,2.20
2023-03-29T02:57:27.194Z,1.40
2023-03-29T03:01:29.403Z,1.50
2023-03-29T03:05:31.637Z,1.77
2023-03-29T03:09:34.388Z,1.45
2023-03-29T03:13:36.608Z,1.50
2023-03-29T03:17:40.233Z,1.60
2023-03-29T03:21:44.569Z,1.40
2023-03-29T03:25:48.051Z,1.70
2023-03-29T03:29:50.375Z,1.27
2023-03-29T03:34:31.232Z,1.70
2023-03-29T03:42:40.432Z,1.40
2023-03-29T03:46:44.132Z,1.33
2023-03-29T03:50:50.583Z,1.63
2023-03-29T03:54:53.251Z,1.88
2023-03-29T03:59:13.997Z,1.77
2023-03-29T04:03:27.959Z,1.48
2023-03-29T04:07:30.554Z,1.83
2023-03-29T04:11:43.240Z,1.95
2023-03-29T04:15:49.930Z,2.20
2023-03-29T04:19:52.234Z,2.00
2023-03-29T04:23:54.958Z,1.48
2023-03-29T04:27:57.832Z,1.45
2023-03-29T04:32:17.715Z,1.35
2023-03-29T04:36:34.505Z,1.80
2023-03-29T04:40:38.415Z,2.00
2023-03-29T04:44:47.794Z,2.10
2023-03-29T04:48:57.499Z,1.90
2023-03-29T04:53:09.187Z,1.58
2023-03-29T04:57:11.417Z,1.90
2023-03-29T05:01:39.750Z,2.20
2023-03-29T05:05:41.888Z,1.40
2023-03-29T05:09:44.414Z,1.65
2023-03-29T05:13:47.772Z,1.90
2023-03-29T05:17:50.157Z,1.77
2023-03-29T05:21:53.474Z,2.40
2023-03-29T05:25:58.960Z,2.35
2023-03-29T05:30:01.781Z,1.60
2023-03-29T05:34:09.374Z,1.80
2023-03-29T05:38:17.127Z,2.00
2023-03-29T05:42:22.488Z,1.80
2023-03-29T05:46:29.520Z,2.05
2023-03-29T05:50:37.281Z,2.15
2023-03-29T05:54:41.626Z,1.77
2023-03-29T05:58:46.757Z,1.67
2023-03-29T06:02:50.975Z,1.98
2023-03-29T06:06:53.270Z,1.95
2023-03-29T06:11:02.448Z,1.75
2023-03-29T06:15:29.026Z,1.60
2023-03-29T06:19:36.641Z,1.73
2023-03-29T06:23:40.281Z,2.00
2023-03-29T06:27:42.586Z,2.10
2023-03-29T06:31:46.217Z,2.20
2023-03-29T06:36:08.832Z,2.65
2023-03-29T06:40:11.466Z,2.17
2023-03-29T06:44:18.711Z,2.30
2023-03-29T06:48:31.805Z,2.20
2023-03-29T06:52:35.448Z,1.90
2023-03-29T06:56:37.690Z,2.30
2023-03-29T07:00:44.325Z,3.08
2023-03-29T07:04:51.809Z,3.75
2023-03-29T07:09:00.717Z,4.22
2023-03-29T07:13:20.783Z,3.83
2023-03-29T07:17:25.255Z,3.38
2023-03-29T07:21:28.861Z,4.80
2023-03-29T07:25:34.362Z,5.30
2023-03-29T07:29:37.297Z,5.53
2023-03-29T07:33:40.001Z,5.03
2023-03-29T07:37:43.048Z,4.00
2023-03-29T07:41:45.754Z,4.80
2023-03-29T07:45:48.830Z,5.40
2023-03-29T07:49:51.002Z,4.63
2023-03-29T07:53:53.811Z,5.00
2023-03-29T07:58:11.624Z,5.43
2023-03-29T08:02:13.908Z,4.78
2023-03-29T08:06:19.948Z,5.68
2023-03-29T08:10:28.740Z,4.40
2023-03-29T08:14:39.362Z,3.88
2023-03-29T08:18:52.868Z,6.20
2023-03-29T08:22:58.356Z,5.97
2023-03-29T08:27:04.537Z,5.95
2023-03-29T08:31:07.895Z,4.68
2023-03-29T08:35:10.875Z,4.77
2023-03-29T08:39:25.080Z,4.30
2023-03-29T08:44:12.166Z,4.82
2023-03-29T08:48:33.977Z,4.40
2023-03-29T08:53:04.630Z,4.70
2023-03-29T08:57:26.078Z,13.85
2023-03-29T09:01:36.346Z,4.40
2023-03-29T09:05:45.575Z,5.13
2023-03-29T09:09:53.483Z,12.50
2023-03-29T09:14:51.270Z,4.05
2023-03-29T09:19:01.188Z,7.30
2023-03-29T09:23:38.684Z,4.43
2023-03-29T09:28:17.513Z,4.07
2023-03-29T09:32:39.685Z,4.22
2023-03-29T09:36:52.666Z,4.35
2023-03-29T09:41:06.869Z,2.10
2023-03-29T09:45:10.917Z,1.98
2023-03-29T09:49:25.329Z,2.20
2023-03-29T09:53:27.717Z,2.70
2023-03-29T09:57:43.932Z,2.50
2023-03-29T10:01:48.450Z,2.10
2023-03-29T10:05:54.629Z,2.20
2023-03-29T10:09:57.080Z,2.00
2023-03-29T10:14:27.966Z,2.53
2023-03-29T10:18:39.274Z,2.15
2023-03-29T10:22:48.786Z,2.42
2023-03-29T10:26:55.720Z,2.30
2023-03-29T10:31:01.071Z,1.88
2023-03-29T10:35:15.760Z,1.80
2023-03-29T10:39:19.229Z,1.80
2023-03-29T10:43:24.753Z,2.33
2023-03-29T10:47:34.486Z,2.10
2023-03-29T10:51:37.574Z,1.95
2023-03-29T10:56:26.124Z,2.13
2023-03-29T11:01:03.625Z,1.80
2023-03-29T11:05:24.704Z,1.83
2023-03-29T11:09:43.405Z,1.67
2023-03-29T11:13:49.792Z,1.70
2023-03-29T11:18:00.986Z,1.92
2023-03-29T11:22:15.900Z,1.95
2023-03-29T11:26:24.678Z,1.40
2023-03-29T11:30:44.386Z,1.67
2023-03-29T11:35:21.094Z,1.55
2023-03-29T11:39:43.329Z,1.80
2023-03-29T11:44:11.579Z,2.15
2023-03-29T11:48:25.047Z,1.50
2023-03-29T11:52:38.144Z,1.60
2023-03-29T11:57:02.172Z,1.20
2023-03-29T12:01:15.034Z,1.23
2023-03-29T12:05:22.298Z,1.10
2023-03-29T12:09:39.675Z,1.10
2023-03-29T12:13:52.614Z,1.10
2023-03-29T12:18:16.661Z,1.15
2023-03-29T12:22:19.297Z,1.20
2023-03-29T12:27:12.579Z,1.42
2023-03-29T12:31:29.222Z,0.80
2023-03-29T12:35:59.184Z,1.08
2023-03-29T12:40:47.388Z,1.02
2023-03-29T12:45:18.272Z,0.70
2023-03-29T12:49:31.817Z,1.13
2023-03-29T12:53:37.158Z,1.00
2023-03-29T12:57:42.946Z,0.98
2023-03-29T13:02:03.016Z,0.88
2023-03-29T13:06:09.456Z,0.70
2023-03-29T13:10:34.338Z,0.90
2023-03-29T13:14:40.798Z,1.08
2023-03-29T13:19:14.875Z,1.50
2023-03-29T13:23:26.517Z,1.10
2023-03-29T13:27:50.802Z,1.60
2023-03-29T13:32:13.645Z,1.45
2023-03-29T13:36:39.373Z,1.25
2023-03-29T13:40:44.323Z,1.27
2023-03-29T13:44:49.309Z,0.90
2023-03-29T13:49:00.885Z,1.10
2023-03-29T13:53:31.171Z,1.50
2023-03-29T13:57:40.847Z,0.93
2023-03-29T14:01:57.373Z,1.05
2023-03-29T14:06:02.622Z,1.10
2023-03-29T14:10:05.943Z,1.20
2023-03-29T14:14:10.026Z,1.73
2023-03-29T14:18:16.609Z,0.90
2023-03-29T14:22:21.986Z,1.10
2023-03-29T14:26:30.578Z,1.23
2023-03-29T14:30:32.793Z,1.27
2023-03-29T14:34:34.820Z,1.08
2023-03-29T14:38:37.901Z,1.48
2023-03-29T14:42:41.291Z,1.10
2023-03-29T14:46:45.565Z,1.00
2023-03-29T14:54:53.366Z,1.00
2023-03-29T14:58:56.760Z,1.02
2023-03-29T15:03:02.904Z,1.00
2023-03-29T15:07:05.462Z,1.40
2023-03-29T15:11:23.425Z,1.20
2023-03-29T15:15:25.903Z,1.00
2023-03-29T15:19:28.356Z,1.38
2023-03-29T15:23:46.781Z,1.00
2023-03-29T15:27:51.438Z,0.90
2023-03-29T15:31:59.111Z,1.30
2023-03-29T15:36:02.556Z,1.38
2023-03-29T15:40:09.945Z,1.77
2023-03-29T15:44:15.372Z,1.30
2023-03-29T15:48:24.586Z,1.25
2023-03-29T15:52:26.730Z,1.10
2023-03-29T15:56:29.299Z,1.50
2023-03-29T16:00:31.627Z,1.20
2023-03-29T16:04:33.686Z,1.60
2023-03-29T16:08:35.934Z,1.48
2023-03-29T16:12:38.719Z,1.27
2023-03-29T16:16:41.005Z,1.17
2023-03-29T16:20:43.243Z,1.42
2023-03-29T16:24:45.682Z,1.00
2023-03-29T16:28:47.816Z,1.45
2023-03-29T16:32:50.138Z,1.42
2023-03-29T16:36:53.157Z,1.20
2023-03-29T16:40:56.442Z,1.10
2023-03-29T16:44:58.725Z,1.30
2023-03-29T16:49:00.795Z,1.80
2023-03-29T16:53:03.204Z,1.35
2023-03-29T16:57:07.339Z,1.35
2023-03-29T17:01:14.802Z,2.05
2023-03-29T17:05:18.005Z,1.42
2023-03-29T17:09:20.324Z,1.92
2023-03-29T17:13:24.049Z,1.70
2023-03-29T17:17:26.199Z,1.33
2023-03-29T17:21:29.624Z,1.50
2023-03-29T17:25:32.025Z,1.43
2023-03-29T17:29:35.421Z,1.38
2023-03-29T17:33:37.960Z,1.48
2023-03-29T17:37:40.303Z,1.60
2023-03-29T17:41:42.803Z,1.33
2023-03-29T17:45:46.421Z,1.50
2023-03-29T17:49:48.636Z,2.50
2023-03-29T17:53:52.423Z,2.22
2023-03-29T17:57:54.846Z,3.05
2023-03-29T18:01:57.529Z,3.35
2023-03-29T18:05:59.741Z,1.90
2023-03-29T18:10:02.468Z,1.75
2023-03-29T18:14:05.349Z,1.70
2023-03-29T18:18:07.741Z,1.70
2023-03-29T18:22:09.918Z,1.67
2023-03-29T18:26:12.402Z,1.95
2023-03-29T18:30:16.862Z,4.15
2023-03-29T18:34:19.056Z,6.40
2023-03-29T18:38:22.694Z,2.78
2023-03-29T18:42:24.919Z,2.43
2023-03-29T18:46:30.638Z,3.45
2023-03-29T18:50:36.138Z,5.25
2023-03-29T18:54:38.736Z,4.15
2023-03-29T18:58:41.227Z,3.00
2023-03-29T19:02:43.514Z,3.90
2023-03-29T19:06:46.164Z,4.00
2023-03-29T19:10:48.569Z,4.25
2023-03-29T19:14:50.673Z,3.60
2023-03-29T19:18:52.757Z,3.58
2023-03-29T19:22:54.849Z,2.72
2023-03-29T19:26:57.564Z,2.25
2023-03-29T19:31:02.008Z,2.03
2023-03-29T19:39:07.348Z,1.90
2023-03-29T19:43:09.623Z,2.40
2023-03-29T19:47:12.403Z,2.33
2023-03-29T19:51:14.681Z,3.40
2023-03-29T19:55:17.980Z,2.95
2023-03-29T19:59:20.468Z,2.50
2023-03-29T20:03:22.557Z,3.10
2023-03-29T20:07:24.984Z,2.60
2023-03-29T20:11:27.363Z,2.45
2023-03-29T20:15:29.605Z,2.38
2023-03-29T20:19:31.677Z,1.60
2023-03-29T20:23:34.695Z,1.60
2023-03-29T20:27:36.939Z,1.73
2023-03-29T20:31:39.126Z,1.88
2023-03-29T20:35:41.301Z,2.17
2023-03-29T20:39:43.431Z,1.60
2023-03-29T20:43:46.353Z,1.63
2023-03-29T20:47:57.678Z,1.75
2023-03-29T20:52:00.109Z,1.88
2023-03-29T20:56:03.426Z,1.92
2023-03-29T21:00:12.950Z,2.13
2023-03-29T21:04:15.280Z,1.80
2023-03-29T21:08:17.737Z,2.42
2023-03-29T21:12:20.356Z,2.13
2023-03-29T21:16:22.710Z,1.80
2023-03-29T21:20:25.128Z,1.92
2023-03-29T21:24:27.285Z,1.75
2023-03-29T21:28:30.565Z,2.15
2023-03-29T21:32:32.700Z,2.45
2023-03-29T21:36:34.846Z,1.92
2023-03-29T21:40:37.210Z,1.67
2023-03-29T21:44:39.253Z,2.28
2023-03-29T21:48:41.984Z,2.30
2023-03-29T21:52:44.362Z,3.42
2023-03-29T21:56:47.816Z,3.30
2023-03-29T22:00:50.200Z,2.87
2023-03-29T22:04:53.366Z,2.40
2023-03-29T22:08:56.089Z,2.40
2023-03-29T22:13:00.185Z,2.15
2023-03-29T22:17:06.278Z,1.50
2023-03-29T22:21:30.876Z,2.33
2023-03-29T22:25:32.975Z,1.67
2023-03-29T22:29:35.077Z,1.77
2023-03-29T22:33:37.889Z,1.70
2023-03-29T22:37:42.009Z,1.80
2023-03-29T22:41:44.121Z,1.92
2023-03-29T22:45:46.378Z,2.10
2023-03-29T22:49:48.437Z,2.30
2023-03-29T22:53:50.835Z,1.80
2023-03-29T22:57:53.009Z,2.00
2023-03-29T23:01:55.522Z,2.75
2023-03-29T23:05:59.383Z,1.88
2023-03-29T23:10:01.577Z,2.38
2023-03-29T23:14:07.716Z,2.13
2023-03-29T23:18:13.181Z,2.20
2023-03-29T23:22:15.363Z,1.85
2023-03-29T23:26:17.605Z,1.98
2023-03-29T23:30:21.701Z,2.58
2023-03-29T23:34:23.738Z,1.95
2023-03-29T23:38:26.691Z,2.30
2023-03-29T23:42:29.455Z,2.40
2023-03-29T23:46:32.639Z,2.35
2023-03-29T23:50:34.931Z,3.30
2023-03-29T23:54:37.235Z,2.45
2023-03-29T23:58:39.407Z,2.63
